createdAt,value
2019-05-14T00:02:25.437Z,99.90
2019-05-14T00:04:51.777Z,99.90
2019-05-14T00:07:18.018Z,99.90
2019-05-14T00:09:44.601Z,99.90
2019-05-14T00:12:11.498Z,99.90
2019-05-14T00:14:40.159Z,99.90
2019-05-14T00:17:06.237Z,99.90
2019-05-14T00:19:32.662Z,99.90
2019-05-14T00:21:59.005Z,99.90
2019-05-14T00:24:25.318Z,99.90
2019-05-14T00:26:51.854Z,99.90
2019-05-14T00:29:18.186Z,99.90
2019-05-14T00:31:44.654Z,99.90
2019-05-14T00:34:11.294Z,99.90
2019-05-14T00:36:37.638Z,99.90
2019-05-14T00:39:05.498Z,99.90
2019-05-14T00:41:31.854Z,99.90
2019-05-14T00:43:58.081Z,99.90
2019-05-14T00:46:24.357Z,99.90
2019-05-14T00:48:51.428Z,99.90
2019-05-14T00:51:17.947Z,99.90
2019-05-14T00:53:44.701Z,99.90
2019-05-14T00:56:11.173Z,99.90
2019-05-14T00:58:37.485Z,99.90
2019-05-14T01:01:04.081Z,99.90
2019-05-14T01:03:32.422Z,99.90
2019-05-14T01:05:58.849Z,99.90
2019-05-14T01:08:25.294Z,99.90
2019-05-14T01:10:51.546Z,99.90
2019-05-14T01:13:17.991Z,99.90
2019-05-14T01:15:44.352Z,99.90
2019-05-14T01:18:11.383Z,99.90
2019-05-14T01:20:37.798Z,99.90
2019-05-14T01:23:04.265Z,99.90
2019-05-14T01:25:31.734Z,99.90
2019-05-14T01:27:58.191Z,99.90
2019-05-14T01:30:24.609Z,99.90
2019-05-14T01:32:51.298Z,99.90
2019-05-14T01:35:17.781Z,99.90
2019-05-14T01:37:44.273Z,99.90
2019-05-14T01:40:11.478Z,99.90
2019-05-14T01:42:37.965Z,99.90
2019-05-14T01:45:04.844Z,99.90
2019-05-14T01:47:31.920Z,99.90
2019-05-14T01:49:58.359Z,99.90
2019-05-14T01:52:24.626Z,99.90
2019-05-14T01:54:51.689Z,99.90
2019-05-14T01:57:18.124Z,99.90
2019-05-14T01:59:44.567Z,99.90
2019-05-14T02:02:11.571Z,99.90
2019-05-14T02:04:38.380Z,99.90
2019-05-14T02:07:04.840Z,99.90
2019-05-14T02:09:31.276Z,99.90
2019-05-14T02:11:57.844Z,99.90
2019-05-14T02:14:24.330Z,99.90
2019-05-14T02:16:51.220Z,99.90
2019-05-14T02:19:17.665Z,99.90
2019-05-14T02:21:44.148Z,99.90
2019-05-14T02:24:11.327Z,99.90
2019-05-14T02:26:37.959Z,99.90
2019-05-14T02:29:04.425Z,99.90
2019-05-14T02:31:30.872Z,99.90
2019-05-14T02:33:59.125Z,99.90
2019-05-14T02:36:25.378Z,99.90
2019-05-14T02:38:51.657Z,99.90
2019-05-14T02:41:19.641Z,99.90
2019-05-14T02:43:46.305Z,99.90
2019-05-14T02:46:17.226Z,99.90
2019-05-14T02:48:41.093Z,99.90
2019-05-14T02:51:10.445Z,99.90
2019-05-14T02:53:38.881Z,99.90
2019-05-14T02:56:03.918Z,99.90
2019-05-14T02:58:30.400Z,99.90
2019-05-14T03:01:00.045Z,99.90
2019-05-14T03:03:24.884Z,99.90
2019-05-14T03:05:51.367Z,99.90
2019-05-14T03:08:19.832Z,99.90
2019-05-14T03:10:49.810Z,99.90
2019-05-14T03:13:14.837Z,99.90
2019-05-14T03:15:41.446Z,99.90
2019-05-14T03:18:09.193Z,99.90
2019-05-14T03:20:38.720Z,99.90
2019-05-14T03:23:08.933Z,99.90
2019-05-14T03:25:33.218Z,99.90
2019-05-14T03:28:00.093Z,99.90
2019-05-14T03:30:31.662Z,99.90
2019-05-14T03:32:54.875Z,99.90
2019-05-14T03:35:23.482Z,99.90
2019-05-14T03:37:50.015Z,99.90
2019-05-14T03:40:19.249Z,99.90
2019-05-14T03:42:44.858Z,99.90
2019-05-14T03:45:11.619Z,99.90
2019-05-14T03:47:39.368Z,99.90
2019-05-14T03:50:09.818Z,99.90
2019-05-14T03:52:35.219Z,99.90
2019-05-14T03:55:04.818Z,99.90
2019-05-14T03:57:29.947Z,99.90
2019-05-14T03:59:59.771Z,99.90
2019-05-14T04:02:24.839Z,99.90
2019-05-14T04:04:51.527Z,99.90
2019-05-14T04:07:20.050Z,99.90
2019-05-14T04:09:49.343Z,99.90
2019-05-14T04:12:19.141Z,99.90
2019-05-14T04:14:45.641Z,99.90
2019-05-14T04:17:15.361Z,99.90
2019-05-14T04:19:44.351Z,99.90
2019-05-14T04:22:11.991Z,99.90
2019-05-14T04:24:41.496Z,99.90
2019-05-14T04:27:12.847Z,99.90
2019-05-14T04:29:39.759Z,99.90
2019-05-14T04:32:09.390Z,99.90
2019-05-14T04:34:39.825Z,99.90
2019-05-14T04:37:09.667Z,99.90
2019-05-14T04:39:39.257Z,99.90
2019-05-14T04:42:04.323Z,99.90
2019-05-14T04:44:30.764Z,99.90
2019-05-14T04:46:59.842Z,99.90
2019-05-14T04:49:25.366Z,99.90
2019-05-14T04:51:51.807Z,99.90
2019-05-14T04:54:19.465Z,99.90
2019-05-14T04:56:46.174Z,99.90
2019-05-14T04:59:12.754Z,99.90
2019-05-14T05:01:40.178Z,99.90
2019-05-14T05:04:09.612Z,99.90
2019-05-14T05:06:35.172Z,99.90
2019-05-14T05:09:01.423Z,99.90
2019-05-14T05:11:29.145Z,99.90
2019-05-14T05:13:55.747Z,99.70
2019-05-14T05:16:22.085Z,99.90
2019-05-14T05:18:49.397Z,98.50
2019-05-14T05:21:15.850Z,99.00
2019-05-14T05:23:42.541Z,98.60
2019-05-14T05:26:09.394Z,97.90
2019-05-14T05:28:35.769Z,98.30
2019-05-14T05:31:03.309Z,98.70
2019-05-14T05:33:29.857Z,97.90
2019-05-14T05:35:56.320Z,98.10
2019-05-14T05:38:22.688Z,97.80
2019-05-14T05:40:48.941Z,97.30
2019-05-14T05:43:15.432Z,96.60
2019-05-14T05:45:41.870Z,97.00
2019-05-14T05:48:08.296Z,96.20
2019-05-14T05:50:34.758Z,94.30
2019-05-14T05:53:01.021Z,95.10
2019-05-14T05:55:28.807Z,95.30
2019-05-14T05:57:55.294Z,94.00
2019-05-14T06:00:30.830Z,94.30
2019-05-14T06:02:59.074Z,93.40
2019-05-14T06:05:25.412Z,92.70
2019-05-14T06:07:51.921Z,92.30
2019-05-14T06:10:18.765Z,91.20
2019-05-14T06:12:45.054Z,92.10
2019-05-14T06:15:14.239Z,91.20
2019-05-14T06:17:39.790Z,90.10
2019-05-14T06:20:08.578Z,86.90
2019-05-14T06:22:34.842Z,85.30
2019-05-14T06:25:01.368Z,84.50
2019-05-14T06:27:28.724Z,85.80
2019-05-14T06:29:55.309Z,81.00
2019-05-14T06:32:21.657Z,79.40
2019-05-14T06:34:48.907Z,82.10
2019-05-14T06:37:15.665Z,79.80
2019-05-14T06:39:41.950Z,76.30
2019-05-14T06:42:08.934Z,76.50
2019-05-14T06:44:35.393Z,79.00
2019-05-14T06:47:01.633Z,76.00
2019-05-14T06:49:28.938Z,73.60
2019-05-14T06:51:55.800Z,74.80
2019-05-14T06:54:22.117Z,73.30
2019-05-14T06:56:48.911Z,72.10
2019-05-14T06:59:15.454Z,73.40
2019-05-14T07:01:41.720Z,70.60
2019-05-14T07:04:08.780Z,66.50
2019-05-14T07:06:35.397Z,68.50
2019-05-14T07:09:01.829Z,67.40
2019-05-14T07:11:29.209Z,65.30
2019-05-14T07:13:57.952Z,64.40
2019-05-14T07:16:23.778Z,68.60
2019-05-14T07:18:53.988Z,66.00
2019-05-14T07:21:18.772Z,67.40
2019-05-14T07:23:45.205Z,68.60
2019-05-14T07:26:11.451Z,64.20
2019-05-14T07:28:42.109Z,61.70
2019-05-14T07:31:06.142Z,61.90
2019-05-14T07:33:32.600Z,59.50
2019-05-14T07:35:59.514Z,60.30
2019-05-14T07:38:28.273Z,59.60
2019-05-14T07:40:54.297Z,56.20
2019-05-14T07:43:20.766Z,63.20
2019-05-14T07:45:49.240Z,58.70
2019-05-14T07:48:15.478Z,60.70
2019-05-14T07:50:42.459Z,59.60
2019-05-14T07:53:09.102Z,58.90
2019-05-14T07:55:35.548Z,58.10
2019-05-14T07:58:02.048Z,56.00
2019-05-14T08:00:28.657Z,53.80
2019-05-14T08:02:55.163Z,57.20
2019-05-14T08:05:21.614Z,54.90
2019-05-14T08:07:48.183Z,55.60
2019-05-14T08:10:15.661Z,54.10
2019-05-14T08:12:42.124Z,52.80
2019-05-14T08:15:17.646Z,52.80
2019-05-14T08:17:38.733Z,52.70
2019-05-14T08:20:09.093Z,52.90
2019-05-14T08:22:35.535Z,52.90
2019-05-14T08:25:04.281Z,53.50
2019-05-14T08:27:31.339Z,54.00
2019-05-14T08:29:58.960Z,69.00
2019-05-14T08:32:25.448Z,62.90
2019-05-14T08:34:52.017Z,68.20
2019-05-14T08:37:19.120Z,63.70
2019-05-14T08:39:48.399Z,60.30
2019-05-14T08:42:14.085Z,56.10
2019-05-14T08:44:40.597Z,58.10
2019-05-14T08:47:08.917Z,47.60
2019-05-14T08:49:42.545Z,48.10
2019-05-14T08:52:03.664Z,50.60
2019-05-14T08:54:30.016Z,51.40
2019-05-14T08:56:58.432Z,50.90
2019-05-14T08:59:25.080Z,47.60
2019-05-14T09:02:01.792Z,53.70
2019-05-14T09:04:22.153Z,49.90
2019-05-14T09:06:48.916Z,53.50
2019-05-14T09:09:17.729Z,47.60
2019-05-14T09:11:45.712Z,51.70
2019-05-14T09:14:12.341Z,51.30
2019-05-14T09:16:46.451Z,53.00
2019-05-14T09:19:08.725Z,50.20
2019-05-14T09:21:35.185Z,48.20
2019-05-14T09:24:01.637Z,49.90
2019-05-14T09:26:28.556Z,51.40
2019-05-14T09:28:54.982Z,49.40
2019-05-14T09:31:21.397Z,49.90
2019-05-14T09:33:49.469Z,46.70
2019-05-14T09:36:20.432Z,49.40
2019-05-14T09:38:44.458Z,47.50
2019-05-14T09:41:15.197Z,40.00
2019-05-14T09:43:39.492Z,44.30
2019-05-14T09:46:06.118Z,44.70
2019-05-14T09:48:32.633Z,38.30
2019-05-14T09:50:58.979Z,43.60
2019-05-14T09:53:25.683Z,47.70
2019-05-14T09:55:52.150Z,50.70
2019-05-14T09:58:19.844Z,46.50
2019-05-14T10:00:48.527Z,46.90
2019-05-14T10:03:15.037Z,43.10
2019-05-14T10:05:41.588Z,45.00
2019-05-14T10:08:08.942Z,43.80
2019-05-14T10:10:35.576Z,48.00
2019-05-14T10:13:02.061Z,43.50
2019-05-14T10:15:28.770Z,48.30
2019-05-14T10:17:55.171Z,48.00
2019-05-14T10:20:36.710Z,45.00
2019-05-14T10:22:49.777Z,43.30
2019-05-14T10:25:18.205Z,42.70
2019-05-14T10:27:44.971Z,46.70
2019-05-14T10:30:11.554Z,46.10
2019-05-14T10:32:41.352Z,50.00
2019-05-14T10:35:08.521Z,43.80
2019-05-14T10:37:34.963Z,42.60
2019-05-14T10:40:02.030Z,41.00
2019-05-14T10:42:29.385Z,37.30
2019-05-14T10:44:58.490Z,38.80
2019-05-14T10:47:23.754Z,38.80
2019-05-14T10:49:50.217Z,40.90
2019-05-14T10:52:19.444Z,44.30
2019-05-14T10:54:55.391Z,42.10
2019-05-14T10:57:13.100Z,40.40
2019-05-14T10:59:39.346Z,44.60
2019-05-14T11:02:11.517Z,42.40
2019-05-14T11:04:34.670Z,36.80
2019-05-14T11:07:01.154Z,37.00
2019-05-14T11:09:28.597Z,36.10
2019-05-14T11:11:54.986Z,36.90
2019-05-14T11:14:21.432Z,38.20
2019-05-14T11:16:48.568Z,36.40
2019-05-14T11:19:14.857Z,35.00
2019-05-14T11:21:41.364Z,37.00
2019-05-14T11:24:09.524Z,38.50
2019-05-14T11:26:38.898Z,35.80
2019-05-14T11:29:04.239Z,39.20
2019-05-14T11:31:34.063Z,34.00
2019-05-14T11:33:59.079Z,34.00
2019-05-14T11:36:25.434Z,37.80
2019-05-14T11:38:51.793Z,37.50
2019-05-14T11:41:18.602Z,33.30
2019-05-14T11:43:45.329Z,34.30
2019-05-14T11:46:11.804Z,36.10
2019-05-14T11:48:39.296Z,35.70
2019-05-14T11:51:08.799Z,35.60
2019-05-14T11:53:34.386Z,37.40
2019-05-14T11:56:00.927Z,33.90
2019-05-14T11:58:29.500Z,36.80
2019-05-14T12:00:58.321Z,38.70
2019-05-14T12:03:23.816Z,36.20
2019-05-14T12:05:50.290Z,35.40
2019-05-14T12:08:18.537Z,35.90
2019-05-14T12:10:45.429Z,35.20
2019-05-14T12:13:11.666Z,37.00
2019-05-14T12:15:38.841Z,36.60
2019-05-14T12:18:05.471Z,36.80
2019-05-14T12:20:32.239Z,45.00
2019-05-14T12:23:04.200Z,46.10
2019-05-14T12:25:30.685Z,41.60
2019-05-14T12:27:58.923Z,44.20
2019-05-14T12:30:28.458Z,41.20
2019-05-14T12:32:54.261Z,41.90
2019-05-14T12:35:20.797Z,39.70
2019-05-14T12:37:47.190Z,40.30
2019-05-14T12:40:13.743Z,34.80
2019-05-14T12:42:40.181Z,34.20
2019-05-14T12:45:09.302Z,40.40
2019-05-14T12:47:38.181Z,37.30
2019-05-14T12:50:06.042Z,37.50
2019-05-14T12:52:32.473Z,36.10
2019-05-14T12:54:59.747Z,36.00
2019-05-14T12:57:29.822Z,36.50
2019-05-14T12:59:54.725Z,35.70
2019-05-14T13:02:21.301Z,37.10
2019-05-14T13:04:48.616Z,36.40
2019-05-14T13:07:15.106Z,36.40
2019-05-14T13:09:41.450Z,38.00
2019-05-14T13:12:11.193Z,38.20
2019-05-14T13:14:39.196Z,38.00
2019-05-14T13:17:04.594Z,37.90
2019-05-14T13:19:31.150Z,37.40
2019-05-14T13:22:12.086Z,37.60
2019-05-14T13:24:26.009Z,36.80
2019-05-14T13:26:52.251Z,39.30
2019-05-14T13:29:19.467Z,36.50
2019-05-14T13:31:45.996Z,36.30
2019-05-14T13:34:12.285Z,38.20
2019-05-14T13:36:40.064Z,38.50
2019-05-14T13:39:09.228Z,38.90
2019-05-14T13:41:34.956Z,37.50
2019-05-14T13:44:17.382Z,38.00
2019-05-14T13:46:29.796Z,39.10
2019-05-14T13:48:58.824Z,39.40
2019-05-14T13:51:24.645Z,39.70
2019-05-14T13:53:50.915Z,40.70
2019-05-14T13:56:18.943Z,40.20
2019-05-14T13:58:48.530Z,40.80
2019-05-14T14:01:14.013Z,41.20
2019-05-14T14:03:47.681Z,40.60
2019-05-14T14:06:10.424Z,39.70
2019-05-14T14:08:41.950Z,41.10
2019-05-14T14:11:05.436Z,40.60
2019-05-14T14:13:31.913Z,40.30
2019-05-14T14:15:58.872Z,40.20
2019-05-14T14:18:26.405Z,37.50
2019-05-14T14:20:53.073Z,38.70
2019-05-14T14:23:26.861Z,39.30
2019-05-14T14:25:53.572Z,39.00
2019-05-14T14:28:16.433Z,38.30
2019-05-14T14:30:42.981Z,37.60
2019-05-14T14:33:09.394Z,38.70
2019-05-14T14:35:35.750Z,38.60
2019-05-14T14:38:02.122Z,38.10
2019-05-14T14:40:30.138Z,38.90
2019-05-14T14:42:59.343Z,38.80
2019-05-14T14:45:25.329Z,41.20
2019-05-14T14:47:51.688Z,39.60
2019-05-14T14:50:19.421Z,39.10
2019-05-14T14:52:49.247Z,41.30
2019-05-14T14:55:14.636Z,38.70
2019-05-14T14:57:45.435Z,39.40
2019-05-14T15:00:11.454Z,39.10
2019-05-14T15:02:40.836Z,40.60
2019-05-14T15:05:13.316Z,39.30
2019-05-14T15:07:34.854Z,38.60
2019-05-14T15:10:01.239Z,41.40
2019-05-14T15:12:29.086Z,39.90
2019-05-14T15:14:59.093Z,40.10
2019-05-14T15:17:23.998Z,41.70
2019-05-14T15:19:50.342Z,39.10
2019-05-14T15:22:20.326Z,39.30
2019-05-14T15:24:45.073Z,42.10
2019-05-14T15:27:15.015Z,41.60
2019-05-14T15:29:42.824Z,44.90
2019-05-14T15:32:09.318Z,44.70
2019-05-14T15:34:35.859Z,46.00
2019-05-14T15:37:02.097Z,45.80
2019-05-14T15:39:30.116Z,46.30
2019-05-14T15:42:03.950Z,46.70
2019-05-14T15:44:24.612Z,47.40
2019-05-14T15:46:51.106Z,58.20
2019-05-14T15:49:19.136Z,58.50
2019-05-14T15:51:45.621Z,55.70
2019-05-14T15:54:35.247Z,55.60
2019-05-14T15:56:40.702Z,53.90
2019-05-14T15:59:08.725Z,53.30
2019-05-14T16:01:35.221Z,53.70
2019-05-14T16:04:01.877Z,52.20
2019-05-14T16:06:28.325Z,52.80
2019-05-14T16:08:54.698Z,52.10
2019-05-14T16:11:21.022Z,50.40
2019-05-14T16:13:49.352Z,50.60
2019-05-14T16:16:15.574Z,50.60
2019-05-14T16:18:42.185Z,51.20
2019-05-14T16:21:10.596Z,49.50
2019-05-14T16:23:38.751Z,49.20
2019-05-14T16:26:05.054Z,47.10
2019-05-14T16:28:31.497Z,48.30
2019-05-14T16:30:59.147Z,47.50
2019-05-14T16:33:28.834Z,48.40
2019-05-14T16:35:53.927Z,48.90
2019-05-14T16:38:23.052Z,50.30
2019-05-14T16:40:49.004Z,50.30
2019-05-14T16:43:15.535Z,49.90
2019-05-14T16:45:42.091Z,49.30
2019-05-14T16:48:10.879Z,49.30
2019-05-14T16:50:36.764Z,42.80
2019-05-14T16:53:03.254Z,45.10
2019-05-14T16:55:30.722Z,45.70
2019-05-14T16:57:58.275Z,47.00
2019-05-14T17:00:24.867Z,47.60
2019-05-14T17:02:51.309Z,48.60
2019-05-14T17:05:17.781Z,48.70
2019-05-14T17:07:44.233Z,47.90
2019-05-14T17:10:11.184Z,47.70
2019-05-14T17:12:49.599Z,49.20
2019-05-14T17:15:09.239Z,50.00
2019-05-14T17:17:34.886Z,48.50
2019-05-14T17:20:01.537Z,49.70
2019-05-14T17:22:30.789Z,50.00
2019-05-14T17:24:58.671Z,48.30
2019-05-14T17:27:24.539Z,49.40
2019-05-14T17:29:51.110Z,50.20
2019-05-14T17:32:18.752Z,50.50
2019-05-14T17:34:45.298Z,50.90
2019-05-14T17:37:11.550Z,50.00
2019-05-14T17:39:38.717Z,49.60
2019-05-14T17:42:05.324Z,50.00
2019-05-14T17:44:31.799Z,49.70
2019-05-14T17:46:58.772Z,49.50
2019-05-14T17:49:25.130Z,49.40
2019-05-14T17:51:51.718Z,49.60
2019-05-14T17:54:18.684Z,50.00
2019-05-14T17:56:45.385Z,49.70
2019-05-14T17:59:11.937Z,50.00
2019-05-14T18:01:39.236Z,50.40
2019-05-14T18:04:06.116Z,50.10
2019-05-14T18:06:32.538Z,49.60
2019-05-14T18:08:59.087Z,51.20
2019-05-14T18:11:25.628Z,51.40
2019-05-14T18:13:51.887Z,50.70
2019-05-14T18:16:19.157Z,51.20
2019-05-14T18:18:45.921Z,51.80
2019-05-14T18:21:12.280Z,52.70
2019-05-14T18:23:41.983Z,52.70
2019-05-14T18:26:09.023Z,53.50
2019-05-14T18:28:35.131Z,53.90
2019-05-14T18:31:01.729Z,55.00
2019-05-14T18:33:31.314Z,54.50
2019-05-14T18:35:58.774Z,54.60
2019-05-14T18:38:24.886Z,54.50
2019-05-14T18:40:51.474Z,55.20
2019-05-14T18:43:18.775Z,55.90
2019-05-14T18:45:45.321Z,56.00
2019-05-14T18:48:11.741Z,56.40
2019-05-14T18:50:38.102Z,57.40
2019-05-14T18:53:04.720Z,57.20
2019-05-14T18:55:31.069Z,55.90
2019-05-14T18:57:59.299Z,53.60
2019-05-14T19:00:26.095Z,52.50
2019-05-14T19:02:52.513Z,53.20
2019-05-14T19:05:19.285Z,53.50
2019-05-14T19:07:48.506Z,53.20
2019-05-14T19:10:14.728Z,53.60
2019-05-14T19:12:41.234Z,53.20
2019-05-14T19:15:08.726Z,53.40
2019-05-14T19:17:35.436Z,53.40
2019-05-14T19:20:02.789Z,53.70
2019-05-14T19:22:29.629Z,54.00
2019-05-14T19:24:58.515Z,54.80
2019-05-14T19:27:24.745Z,54.50
2019-05-14T19:29:51.610Z,55.30
2019-05-14T19:32:19.219Z,54.20
2019-05-14T19:34:45.786Z,54.80
2019-05-14T19:37:12.448Z,56.30
2019-05-14T19:39:39.066Z,55.60
2019-05-14T19:42:08.448Z,55.40
2019-05-14T19:44:34.691Z,55.40
2019-05-14T19:47:01.150Z,56.40
2019-05-14T19:49:28.795Z,58.20
2019-05-14T19:51:55.521Z,58.40
2019-05-14T19:54:22.286Z,59.50
2019-05-14T19:56:56.330Z,58.80
2019-05-14T19:59:18.308Z,59.20
2019-05-14T20:01:44.764Z,60.40
2019-05-14T20:04:11.359Z,60.50
2019-05-14T20:06:38.800Z,60.10
2019-05-14T20:09:05.613Z,61.40
2019-05-14T20:11:35.157Z,60.30
2019-05-14T20:14:02.286Z,60.30
2019-05-14T20:16:28.730Z,60.90
2019-05-14T20:18:55.345Z,61.50
2019-05-14T20:21:22.014Z,61.10
2019-05-14T20:23:49.152Z,62.40
2019-05-14T20:26:15.853Z,61.80
2019-05-14T20:28:42.230Z,62.70
2019-05-14T20:31:09.872Z,62.50
2019-05-14T20:33:36.950Z,63.00
2019-05-14T20:36:03.845Z,63.80
2019-05-14T20:38:30.197Z,64.00
2019-05-14T20:40:58.136Z,64.70
2019-05-14T20:43:24.598Z,64.90
2019-05-14T20:45:50.911Z,64.80
2019-05-14T20:48:18.782Z,65.50
2019-05-14T20:50:45.861Z,66.40
2019-05-14T20:53:12.093Z,66.20
2019-05-14T20:55:38.884Z,66.80
2019-05-14T20:58:05.304Z,67.30
2019-05-14T21:00:31.759Z,67.50
2019-05-14T21:02:59.600Z,68.00
2019-05-14T21:05:28.699Z,68.50
2019-05-14T21:07:55.202Z,68.80
2019-05-14T21:10:23.813Z,69.30
2019-05-14T21:12:50.717Z,70.00
2019-05-14T21:15:18.278Z,71.80
2019-05-14T21:17:44.967Z,72.40
2019-05-14T21:20:12.303Z,72.60
2019-05-14T21:22:40.130Z,73.40
2019-05-14T21:25:11.310Z,73.60
2019-05-14T21:27:44.555Z,74.00
2019-05-14T21:30:04.522Z,74.00
2019-05-14T21:32:30.849Z,74.60
2019-05-14T21:34:58.545Z,75.70
2019-05-14T21:37:25.026Z,76.10
2019-05-14T21:39:52.711Z,76.30
2019-05-14T21:42:19.659Z,76.70
2019-05-14T21:44:48.375Z,78.40
2019-05-14T21:47:14.454Z,78.90
2019-05-14T21:49:41.186Z,79.00
2019-05-14T21:52:09.025Z,79.80
2019-05-14T21:54:35.596Z,79.90
2019-05-14T21:57:01.958Z,80.70
2019-05-14T21:59:28.213Z,80.60
2019-05-14T22:01:54.545Z,81.30
2019-05-14T22:04:21.018Z,81.40
2019-05-14T22:06:49.077Z,82.00
2019-05-14T22:09:15.808Z,83.10
2019-05-14T22:11:42.267Z,82.80
2019-05-14T22:14:08.686Z,83.10
2019-05-14T22:16:35.203Z,83.20
2019-05-14T22:19:01.649Z,83.40
2019-05-14T22:21:28.891Z,84.50
2019-05-14T22:23:55.433Z,84.60
2019-05-14T22:26:22.054Z,85.20
2019-05-14T22:28:48.380Z,85.00
2019-05-14T22:31:16.423Z,85.40
2019-05-14T22:33:43.149Z,86.30
2019-05-14T22:36:09.769Z,86.90
2019-05-14T22:38:38.710Z,87.90
2019-05-14T22:41:04.551Z,88.40
2019-05-14T22:43:30.969Z,88.30
2019-05-14T22:45:59.111Z,88.90
2019-05-14T22:48:25.737Z,90.00
2019-05-14T22:50:52.217Z,89.60
2019-05-14T22:53:18.775Z,90.20
2019-05-14T22:55:45.418Z,90.10
2019-05-14T22:58:24.556Z,90.20
2019-05-14T23:00:47.296Z,90.50
2019-05-14T23:03:08.553Z,90.40
2019-05-14T23:05:35.003Z,90.40
2019-05-14T23:08:01.365Z,90.60
2019-05-14T23:10:27.815Z,90.80
2019-05-14T23:12:54.249Z,90.70
2019-05-14T23:15:20.641Z,90.70
2019-05-14T23:17:48.038Z,90.90
2019-05-14T23:20:14.600Z,90.70
2019-05-14T23:22:41.065Z,90.80
2019-05-14T23:25:09.022Z,91.20
2019-05-14T23:27:35.501Z,91.40
2019-05-14T23:30:02.320Z,91.90
2019-05-14T23:32:28.957Z,92.30
2019-05-14T23:34:55.507Z,92.10
2019-05-14T23:37:22.101Z,92.40
2019-05-14T23:39:49.208Z,92.40
2019-05-14T23:42:15.645Z,92.30
2019-05-14T23:44:42.165Z,92.80
2019-05-14T23:47:08.616Z,92.60
2019-05-14T23:49:35.086Z,92.20
2019-05-14T23:52:01.536Z,92.10
2019-05-14T23:54:29.127Z,92.60
2019-05-14T23:56:58.267Z,92.20
2019-05-14T23:59:23.829Z,92.10
